sensor_id;sensor_type;location;lat;lon;timestamp;temperature;humidity
53844;DHT22;39744;53.314;5.710;2023-08-31T00:01:47;11.10;99.90
53844;DHT22;39744;53.314;5.710;2023-08-31T00:04:14;12.60;99.90
53844;DHT22;39744;53.314;5.710;2023-08-31T00:06:43;12.00;99.90
53844;DHT22;39744;53.314;5.710;2023-08-31T00:09:11;11.20;99.90
53844;DHT22;39744;53.314;5.710;2023-08-31T00:11:37;11.20;99.90
53844;DHT22;39744;53.314;5.710;2023-08-31T00:14:03;11.20;99.90
53844;DHT22;39744;53.314;5.710;2023-08-31T00:16:29;11.30;99.90
53844;DHT22;39744;53.314;5.710;2023-08-31T00:18:58;11.00;99.90
53844;DHT22;39744;53.314;5.710;2023-08-31T00:21:24;11.00;99.90
53844;DHT22;39744;53.314;5.710;2023-08-31T00:23:50;11.10;99.90
53844;DHT22;39744;53.314;5.710;2023-08-31T00:26:16;11.00;99.90
53844;DHT22;39744;53.314;5.710;2023-08-31T00:28:41;11.00;99.90
53844;DHT22;39744;53.314;5.710;2023-08-31T00:31:08;10.90;99.90
53844;DHT22;39744;53.314;5.710;2023-08-31T00:33:34;10.80;99.90
53844;DHT22;39744;53.314;5.710;2023-08-31T00:36:00;11.00;99.90
53844;DHT22;39744;53.314;5.710;2023-08-31T00:38:30;10.80;99.90
53844;DHT22;39744;53.314;5.710;2023-08-31T00:40:56;10.80;99.90
53844;DHT22;39744;53.314;5.710;2023-08-31T00:43:21;10.90;99.90
53844;DHT22;39744;53.314;5.710;2023-08-31T00:45:53;10.80;99.90
53844;DHT22;39744;53.314;5.710;2023-08-31T00:48:24;10.80;99.90
53844;DHT22;39744;53.314;5.710;2023-08-31T00:50:50;10.80;99.90
53844;DHT22;39744;53.314;5.710;2023-08-31T00:53:17;10.90;99.90
53844;DHT22;39744;53.314;5.710;2023-08-31T00:55:46;10.80;99.90
53844;DHT22;39744;53.314;5.710;2023-08-31T00:58:11;10.70;99.90
53844;DHT22;39744;53.314;5.710;2023-08-31T01:01:06;10.90;99.90
53844;DHT22;39744;53.314;5.710;2023-08-31T01:03:51;11.00;99.90
53844;DHT22;39744;53.314;5.710;2023-08-31T01:06:40;11.10;99.90
53844;DHT22;39744;53.314;5.710;2023-08-31T01:09:30;11.00;99.90
53844;DHT22;39744;53.314;5.710;2023-08-31T01:12:19;11.00;99.90
53844;DHT22;39744;53.314;5.710;2023-08-31T01:14:54;11.00;99.90
53844;DHT22;39744;53.314;5.710;2023-08-31T01:17:24;11.10;99.90
53844;DHT22;39744;53.314;5.710;2023-08-31T01:19:54;11.10;99.90
53844;DHT22;39744;53.314;5.710;2023-08-31T01:22:39;11.10;99.90
53844;DHT22;39744;53.314;5.710;2023-08-31T01:25:09;11.40;99.90
53844;DHT22;39744;53.314;5.710;2023-08-31T01:27:36;11.70;99.90
53844;DHT22;39744;53.314;5.710;2023-08-31T01:30:03;11.20;99.90
53844;DHT22;39744;53.314;5.710;2023-08-31T01:32:30;11.40;99.90
53844;DHT22;39744;53.314;5.710;2023-08-31T01:34:56;11.30;99.90
53844;DHT22;39744;53.314;5.710;2023-08-31T01:37:39;11.30;99.90
53844;DHT22;39744;53.314;5.710;2023-08-31T01:40:27;11.50;99.90
53844;DHT22;39744;53.314;5.710;2023-08-31T01:42:58;11.60;99.90
53844;DHT22;39744;53.314;5.710;2023-08-31T01:45:26;11.40;99.90
53844;DHT22;39744;53.314;5.710;2023-08-31T01:47:52;11.40;99.90
53844;DHT22;39744;53.314;5.710;2023-08-31T01:50:18;11.40;99.90
53844;DHT22;39744;53.314;5.710;2023-08-31T01:52:44;11.50;99.90
53844;DHT22;39744;53.314;5.710;2023-08-31T01:55:09;11.50;99.90
53844;DHT22;39744;53.314;5.710;2023-08-31T01:57:35;11.50;99.90
53844;DHT22;39744;53.314;5.710;2023-08-31T02:00:01;11.60;99.90
53844;DHT22;39744;53.314;5.710;2023-08-31T02:02:27;11.60;99.90
53844;DHT22;39744;53.314;5.710;2023-08-31T02:04:53;11.60;99.90
53844;DHT22;39744;53.314;5.710;2023-08-31T02:07:18;11.60;99.90
53844;DHT22;39744;53.314;5.710;2023-08-31T02:09:44;11.60;99.90
53844;DHT22;39744;53.314;5.710;2023-08-31T02:12:10;11.70;99.90
53844;DHT22;39744;53.314;5.710;2023-08-31T02:14:36;11.70;99.90
53844;DHT22;39744;53.314;5.710;2023-08-31T02:17:02;11.70;99.90
53844;DHT22;39744;53.314;5.710;2023-08-31T02:19:28;11.70;99.90
53844;DHT22;39744;53.314;5.710;2023-08-31T02:21:54;11.70;99.90
53844;DHT22;39744;53.314;5.710;2023-08-31T02:24:20;11.60;99.90
53844;DHT22;39744;53.314;5.710;2023-08-31T02:26:45;11.60;99.90
53844;DHT22;39744;53.314;5.710;2023-08-31T02:29:12;11.60;99.90
53844;DHT22;39744;53.314;5.710;2023-08-31T02:31:37;11.70;99.90
53844;DHT22;39744;53.314;5.710;2023-08-31T02:34:03;11.60;99.90
53844;DHT22;39744;53.314;5.710;2023-08-31T02:36:29;11.50;99.90
53844;DHT22;39744;53.314;5.710;2023-08-31T02:38:56;11.50;99.90
53844;DHT22;39744;53.314;5.710;2023-08-31T02:41:22;11.50;99.90
53844;DHT22;39744;53.314;5.710;2023-08-31T02:43:50;11.50;99.90
53844;DHT22;39744;53.314;5.710;2023-08-31T02:46:17;11.60;99.90
53844;DHT22;39744;53.314;5.710;2023-08-31T02:48:43;11.50;99.90
53844;DHT22;39744;53.314;5.710;2023-08-31T02:51:09;11.40;99.90
53844;DHT22;39744;53.314;5.710;2023-08-31T02:53:35;11.40;99.90
53844;DHT22;39744;53.314;5.710;2023-08-31T02:56:01;11.40;99.90
53844;DHT22;39744;53.314;5.710;2023-08-31T02:58:27;11.40;99.90
53844;DHT22;39744;53.314;5.710;2023-08-31T03:00:53;11.30;99.90
53844;DHT22;39744;53.314;5.710;2023-08-31T03:03:19;11.30;99.90
53844;DHT22;39744;53.314;5.710;2023-08-31T03:05:45;11.20;99.90
53844;DHT22;39744;53.314;5.710;2023-08-31T03:08:11;11.40;99.90
53844;DHT22;39744;53.314;5.710;2023-08-31T03:10:38;11.20;99.90
53844;DHT22;39744;53.314;5.710;2023-08-31T03:13:04;11.20;99.90
53844;DHT22;39744;53.314;5.710;2023-08-31T03:15:31;11.20;99.90
53844;DHT22;39744;53.314;5.710;2023-08-31T03:17:57;11.10;99.90
53844;DHT22;39744;53.314;5.710;2023-08-31T03:20:23;11.10;99.90
53844;DHT22;39744;53.314;5.710;2023-08-31T03:22:48;11.10;99.90
53844;DHT22;39744;53.314;5.710;2023-08-31T03:25:14;11.10;99.90
53844;DHT22;39744;53.314;5.710;2023-08-31T03:27:40;11.30;99.90
53844;DHT22;39744;53.314;5.710;2023-08-31T03:30:06;11.20;99.90
53844;DHT22;39744;53.314;5.710;2023-08-31T03:32:32;11.40;99.90
53844;DHT22;39744;53.314;5.710;2023-08-31T03:34:58;11.20;99.90
53844;DHT22;39744;53.314;5.710;2023-08-31T03:37:23;11.10;99.90
53844;DHT22;39744;53.314;5.710;2023-08-31T03:39:49;11.30;99.90
53844;DHT22;39744;53.314;5.710;2023-08-31T03:42:15;11.10;99.90
53844;DHT22;39744;53.314;5.710;2023-08-31T03:44:41;11.30;99.90
53844;DHT22;39744;53.314;5.710;2023-08-31T03:47:07;11.10;99.90
53844;DHT22;39744;53.314;5.710;2023-08-31T03:49:33;11.20;99.90
53844;DHT22;39744;53.314;5.710;2023-08-31T03:54:26;11.60;99.90
53844;DHT22;39744;53.314;5.710;2023-08-31T05:00:25;11.60;99.90
53844;DHT22;39744;53.314;5.710;2023-08-31T05:02:51;11.40;99.90
53844;DHT22;39744;53.314;5.710;2023-08-31T05:05:17;11.30;99.90
53844;DHT22;39744;53.314;5.710;2023-08-31T05:07:44;11.30;99.90
53844;DHT22;39744;53.314;5.710;2023-08-31T05:10:10;11.30;99.90
53844;DHT22;39744;53.314;5.710;2023-08-31T05:12:36;11.40;99.90
53844;DHT22;39744;53.314;5.710;2023-08-31T05:15:02;11.40;99.90
53844;DHT22;39744;53.314;5.710;2023-08-31T05:17:28;11.60;99.90
53844;DHT22;39744;53.314;5.710;2023-08-31T05:19:54;11.40;99.90
53844;DHT22;39744;53.314;5.710;2023-08-31T05:22:19;11.40;99.90
53844;DHT22;39744;53.314;5.710;2023-08-31T05:24:45;11.40;99.90
53844;DHT22;39744;53.314;5.710;2023-08-31T05:27:11;11.20;99.90
53844;DHT22;39744;53.314;5.710;2023-08-31T05:29:36;12.30;99.90
53844;DHT22;39744;53.314;5.710;2023-08-31T05:32:02;11.60;99.90
53844;DHT22;39744;53.314;5.710;2023-08-31T05:34:28;11.80;99.90
53844;DHT22;39744;53.314;5.710;2023-08-31T05:36:54;11.60;99.90
53844;DHT22;39744;53.314;5.710;2023-08-31T05:39:20;11.70;99.90
53844;DHT22;39744;53.314;5.710;2023-08-31T05:41:45;11.70;99.90
53844;DHT22;39744;53.314;5.710;2023-08-31T05:44:11;11.80;99.90
53844;DHT22;39744;53.314;5.710;2023-08-31T05:46:36;11.80;99.90
53844;DHT22;39744;53.314;5.710;2023-08-31T05:49:05;12.00;99.90
53844;DHT22;39744;53.314;5.710;2023-08-31T05:51:31;12.10;99.90
53844;DHT22;39744;53.314;5.710;2023-08-31T05:53:56;12.70;99.90
53844;DHT22;39744;53.314;5.710;2023-08-31T05:56:22;12.10;99.90
53844;DHT22;39744;53.314;5.710;2023-08-31T05:58:48;12.30;99.90
53844;DHT22;39744;53.314;5.710;2023-08-31T06:01:16;12.30;99.90
53844;DHT22;39744;53.314;5.710;2023-08-31T06:03:41;12.30;99.90
53844;DHT22;39744;53.314;5.710;2023-08-31T06:06:07;12.40;99.90
53844;DHT22;39744;53.314;5.710;2023-08-31T06:08:32;12.50;99.90
53844;DHT22;39744;53.314;5.710;2023-08-31T06:10:58;12.60;99.90
53844;DHT22;39744;53.314;5.710;2023-08-31T06:13:24;12.60;99.90
53844;DHT22;39744;53.314;5.710;2023-08-31T06:15:50;12.70;99.90
53844;DHT22;39744;53.314;5.710;2023-08-31T06:18:16;12.90;99.90
53844;DHT22;39744;53.314;5.710;2023-08-31T06:20:41;12.90;99.90
53844;DHT22;39744;53.314;5.710;2023-08-31T06:23:07;13.00;99.90
53844;DHT22;39744;53.314;5.710;2023-08-31T06:25:32;13.00;99.90
53844;DHT22;39744;53.314;5.710;2023-08-31T06:27:58;13.10;99.90
53844;DHT22;39744;53.314;5.710;2023-08-31T06:30:24;13.10;99.90
53844;DHT22;39744;53.314;5.710;2023-08-31T06:32:50;13.20;99.90
53844;DHT22;39744;53.314;5.710;2023-08-31T06:35:16;13.30;99.90
53844;DHT22;39744;53.314;5.710;2023-08-31T06:37:42;13.30;99.90
53844;DHT22;39744;53.314;5.710;2023-08-31T06:40:09;13.40;99.90
53844;DHT22;39744;53.314;5.710;2023-08-31T06:42:38;13.70;99.90
53844;DHT22;39744;53.314;5.710;2023-08-31T06:45:04;13.80;99.90
53844;DHT22;39744;53.314;5.710;2023-08-31T06:47:30;13.80;99.90
53844;DHT22;39744;53.314;5.710;2023-08-31T06:49:56;13.40;99.90
53844;DHT22;39744;53.314;5.710;2023-08-31T06:52:24;13.70;99.90
53844;DHT22;39744;53.314;5.710;2023-08-31T06:54:50;14.40;99.90
53844;DHT22;39744;53.314;5.710;2023-08-31T06:57:15;14.00;99.90
53844;DHT22;39744;53.314;5.710;2023-08-31T06:59:41;13.90;99.90
53844;DHT22;39744;53.314;5.710;2023-08-31T07:02:07;14.00;99.90
53844;DHT22;39744;53.314;5.710;2023-08-31T07:04:32;14.10;99.90
53844;DHT22;39744;53.314;5.710;2023-08-31T07:06:58;14.10;99.90
53844;DHT22;39744;53.314;5.710;2023-08-31T07:09:24;14.30;99.90
53844;DHT22;39744;53.314;5.710;2023-08-31T07:11:49;14.30;99.90
53844;DHT22;39744;53.314;5.710;2023-08-31T07:14:16;14.30;99.90
53844;DHT22;39744;53.314;5.710;2023-08-31T07:16:42;14.40;99.90
53844;DHT22;39744;53.314;5.710;2023-08-31T07:19:07;14.50;99.90
53844;DHT22;39744;53.314;5.710;2023-08-31T07:21:33;14.60;99.90
53844;DHT22;39744;53.314;5.710;2023-08-31T07:23:59;14.60;99.90
53844;DHT22;39744;53.314;5.710;2023-08-31T07:26:24;14.70;99.90
53844;DHT22;39744;53.314;5.710;2023-08-31T07:28:50;14.80;99.90
53844;DHT22;39744;53.314;5.710;2023-08-31T07:31:16;14.90;99.90
53844;DHT22;39744;53.314;5.710;2023-08-31T07:33:42;15.10;99.90
53844;DHT22;39744;53.314;5.710;2023-08-31T07:36:08;15.10;99.90
53844;DHT22;39744;53.314;5.710;2023-08-31T07:38:34;15.10;99.90
53844;DHT22;39744;53.314;5.710;2023-08-31T07:41:00;14.90;99.90
53844;DHT22;39744;53.314;5.710;2023-08-31T07:43:26;14.80;99.90
53844;DHT22;39744;53.314;5.710;2023-08-31T07:45:52;14.70;99.90
53844;DHT22;39744;53.314;5.710;2023-08-31T07:48:18;14.50;99.90
53844;DHT22;39744;53.314;5.710;2023-08-31T07:50:44;14.50;99.90
53844;DHT22;39744;53.314;5.710;2023-08-31T07:53:11;14.50;99.90
53844;DHT22;39744;53.314;5.710;2023-08-31T07:55:37;14.50;99.90
53844;DHT22;39744;53.314;5.710;2023-08-31T07:58:02;14.50;99.90
53844;DHT22;39744;53.314;5.710;2023-08-31T08:00:28;14.80;99.90
53844;DHT22;39744;53.314;5.710;2023-08-31T08:02:54;14.90;99.90
53844;DHT22;39744;53.314;5.710;2023-08-31T08:05:20;15.10;99.90
53844;DHT22;39744;53.314;5.710;2023-08-31T08:07:45;15.20;99.90
53844;DHT22;39744;53.314;5.710;2023-08-31T08:10:12;15.40;99.90
53844;DHT22;39744;53.314;5.710;2023-08-31T08:12:42;15.70;99.90
53844;DHT22;39744;53.314;5.710;2023-08-31T08:15:10;15.60;99.90
53844;DHT22;39744;53.314;5.710;2023-08-31T08:17:36;15.90;99.90
53844;DHT22;39744;53.314;5.710;2023-08-31T08:20:03;15.90;99.90
53844;DHT22;39744;53.314;5.710;2023-08-31T08:22:30;16.20;99.90
53844;DHT22;39744;53.314;5.710;2023-08-31T09:20:59;17.10;99.90
53844;DHT22;39744;53.314;5.710;2023-08-31T09:23:26;17.90;99.90
53844;DHT22;39744;53.314;5.710;2023-08-31T09:25:54;17.10;99.90
53844;DHT22;39744;53.314;5.710;2023-08-31T09:28:21;17.50;99.90
53844;DHT22;39744;53.314;5.710;2023-08-31T09:30:48;17.10;99.90
53844;DHT22;39744;53.314;5.710;2023-08-31T09:33:16;17.50;99.90
53844;DHT22;39744;53.314;5.710;2023-08-31T09:35:56;17.30;99.90
53844;DHT22;39744;53.314;5.710;2023-08-31T09:38:22;17.40;99.90
53844;DHT22;39744;53.314;5.710;2023-08-31T09:40:48;18.30;99.90
53844;DHT22;39744;53.314;5.710;2023-08-31T09:43:22;17.70;99.90
53844;DHT22;39744;53.314;5.710;2023-08-31T09:45:49;17.90;99.90
53844;DHT22;39744;53.314;5.710;2023-08-31T09:48:15;18.00;99.90
53844;DHT22;39744;53.314;5.710;2023-08-31T09:50:43;18.90;99.90
53844;DHT22;39744;53.314;5.710;2023-08-31T09:53:10;18.80;99.90
53844;DHT22;39744;53.314;5.710;2023-08-31T09:55:39;18.00;99.90
53844;DHT22;39744;53.314;5.710;2023-08-31T09:58:06;17.90;99.90
53844;DHT22;39744;53.314;5.710;2023-08-31T10:00:36;16.90;99.90
53844;DHT22;39744;53.314;5.710;2023-08-31T10:03:05;18.30;99.90
53844;DHT22;39744;53.314;5.710;2023-08-31T10:05:31;18.20;99.90
53844;DHT22;39744;53.314;5.710;2023-08-31T10:07:58;19.20;99.90
53844;DHT22;39744;53.314;5.710;2023-08-31T10:10:25;18.30;99.90
53844;DHT22;39744;53.314;5.710;2023-08-31T10:12:52;19.30;99.90
53844;DHT22;39744;53.314;5.710;2023-08-31T10:15:19;19.60;99.90
53844;DHT22;39744;53.314;5.710;2023-08-31T10:17:45;19.70;99.90
53844;DHT22;39744;53.314;5.710;2023-08-31T10:20:17;19.20;99.90
53844;DHT22;39744;53.314;5.710;2023-08-31T10:22:44;18.30;99.90
53844;DHT22;39744;53.314;5.710;2023-08-31T10:25:10;18.40;99.90
53844;DHT22;39744;53.314;5.710;2023-08-31T10:27:44;18.40;99.90
53844;DHT22;39744;53.314;5.710;2023-08-31T10:33:20;18.50;99.90
53844;DHT22;39744;53.314;5.710;2023-08-31T10:35:55;18.80;99.90
53844;DHT22;39744;53.314;5.710;2023-08-31T10:38:25;19.00;99.90
53844;DHT22;39744;53.314;5.710;2023-08-31T10:43:46;19.30;99.90
53844;DHT22;39744;53.314;5.710;2023-08-31T10:46:29;19.40;99.90
53844;DHT22;39744;53.314;5.710;2023-08-31T10:51:38;19.10;99.90
53844;DHT22;39744;53.314;5.710;2023-08-31T10:54:05;19.00;99.90
53844;DHT22;39744;53.314;5.710;2023-08-31T10:56:31;18.90;99.90
53844;DHT22;39744;53.314;5.710;2023-08-31T10:59:01;19.00;99.90
53844;DHT22;39744;53.314;5.710;2023-08-31T11:04:23;18.70;99.90
53844;DHT22;39744;53.314;5.710;2023-08-31T11:07:11;18.80;99.90
53844;DHT22;39744;53.314;5.710;2023-08-31T11:09:36;18.60;99.90
53844;DHT22;39744;53.314;5.710;2023-08-31T11:12:02;18.70;99.90
53844;DHT22;39744;53.314;5.710;2023-08-31T11:14:28;18.70;99.90
53844;DHT22;39744;53.314;5.710;2023-08-31T11:16:55;18.50;99.90
53844;DHT22;39744;53.314;5.710;2023-08-31T11:19:21;19.30;99.90
53844;DHT22;39744;53.314;5.710;2023-08-31T11:21:46;19.20;99.90
53844;DHT22;39744;53.314;5.710;2023-08-31T11:24:12;18.70;99.90
53844;DHT22;39744;53.314;5.710;2023-08-31T11:26:38;18.80;99.90
53844;DHT22;39744;53.314;5.710;2023-08-31T11:29:07;19.20;99.90
53844;DHT22;39744;53.314;5.710;2023-08-31T11:31:38;18.90;99.90
53844;DHT22;39744;53.314;5.710;2023-08-31T11:34:11;19.00;99.90
53844;DHT22;39744;53.314;5.710;2023-08-31T11:36:38;18.90;99.90
53844;DHT22;39744;53.314;5.710;2023-08-31T11:39:07;18.90;99.90
53844;DHT22;39744;53.314;5.710;2023-08-31T11:41:34;19.00;99.90
53844;DHT22;39744;53.314;5.710;2023-08-31T11:44:03;19.00;99.90
53844;DHT22;39744;53.314;5.710;2023-08-31T11:46:29;19.20;99.90
53844;DHT22;39744;53.314;5.710;2023-08-31T11:48:56;19.00;99.90
53844;DHT22;39744;53.314;5.710;2023-08-31T11:51:22;19.00;99.90
53844;DHT22;39744;53.314;5.710;2023-08-31T11:53:48;18.90;99.90
53844;DHT22;39744;53.314;5.710;2023-08-31T11:56:13;19.10;99.90
53844;DHT22;39744;53.314;5.710;2023-08-31T11:58:42;19.30;99.90
53844;DHT22;39744;53.314;5.710;2023-08-31T12:01:19;19.40;99.90
53844;DHT22;39744;53.314;5.710;2023-08-31T12:03:45;19.50;99.90
53844;DHT22;39744;53.314;5.710;2023-08-31T12:06:15;19.40;99.90
53844;DHT22;39744;53.314;5.710;2023-08-31T12:08:42;19.40;99.90
53844;DHT22;39744;53.314;5.710;2023-08-31T12:11:08;19.30;99.90
53844;DHT22;39744;53.314;5.710;2023-08-31T12:13:33;19.00;99.90
53844;DHT22;39744;53.314;5.710;2023-08-31T12:15:59;18.70;99.90
53844;DHT22;39744;53.314;5.710;2023-08-31T12:18:29;18.60;99.90
53844;DHT22;39744;53.314;5.710;2023-08-31T12:20:56;18.50;99.90
53844;DHT22;39744;53.314;5.710;2023-08-31T12:23:22;18.40;99.90
53844;DHT22;39744;53.314;5.710;2023-08-31T12:25:52;18.60;99.90
53844;DHT22;39744;53.314;5.710;2023-08-31T12:28:19;18.60;99.90
53844;DHT22;39744;53.314;5.710;2023-08-31T12:30:53;19.10;99.90
53844;DHT22;39744;53.314;5.710;2023-08-31T12:33:19;19.00;99.90
53844;DHT22;39744;53.314;5.710;2023-08-31T12:35:46;18.60;99.90
53844;DHT22;39744;53.314;5.710;2023-08-31T12:38:12;18.00;99.90
53844;DHT22;39744;53.314;5.710;2023-08-31T12:40:38;18.50;99.90
53844;DHT22;39744;53.314;5.710;2023-08-31T12:43:05;18.10;99.90
53844;DHT22;39744;53.314;5.710;2023-08-31T12:45:31;18.10;99.90
53844;DHT22;39744;53.314;5.710;2023-08-31T12:47:56;18.70;99.90
53844;DHT22;39744;53.314;5.710;2023-08-31T12:50:23;17.90;99.90
53844;DHT22;39744;53.314;5.710;2023-08-31T12:52:49;18.40;99.90
53844;DHT22;39744;53.314;5.710;2023-08-31T12:55:15;19.00;99.90
53844;DHT22;39744;53.314;5.710;2023-08-31T12:57:42;18.70;99.90
53844;DHT22;39744;53.314;5.710;2023-08-31T13:00:08;19.20;99.90
53844;DHT22;39744;53.314;5.710;2023-08-31T13:02:41;18.80;99.90
53844;DHT22;39744;53.314;5.710;2023-08-31T13:05:09;18.80;99.90
53844;DHT22;39744;53.314;5.710;2023-08-31T13:07:38;18.70;99.90
53844;DHT22;39744;53.314;5.710;2023-08-31T13:10:05;19.00;99.90
53844;DHT22;39744;53.314;5.710;2023-08-31T13:12:31;18.80;99.90
53844;DHT22;39744;53.314;5.710;2023-08-31T13:14:58;18.60;99.90
53844;DHT22;39744;53.314;5.710;2023-08-31T13:17:24;18.60;99.90
53844;DHT22;39744;53.314;5.710;2023-08-31T13:19:57;18.70;99.90
53844;DHT22;39744;53.314;5.710;2023-08-31T13:22:24;18.80;99.90
53844;DHT22;39744;53.314;5.710;2023-08-31T13:24:50;18.60;99.90
53844;DHT22;39744;53.314;5.710;2023-08-31T13:27:16;18.40;99.90
53844;DHT22;39744;53.314;5.710;2023-08-31T13:29:43;18.20;99.90
53844;DHT22;39744;53.314;5.710;2023-08-31T13:32:09;18.20;99.90
53844;DHT22;39744;53.314;5.710;2023-08-31T13:34:35;18.30;99.90
53844;DHT22;39744;53.314;5.710;2023-08-31T13:37:02;18.60;99.90
53844;DHT22;39744;53.314;5.710;2023-08-31T13:39:29;18.70;99.90
53844;DHT22;39744;53.314;5.710;2023-08-31T13:41:55;18.90;99.90
53844;DHT22;39744;53.314;5.710;2023-08-31T13:44:20;18.90;99.90
53844;DHT22;39744;53.314;5.710;2023-08-31T13:46:47;19.20;99.90
53844;DHT22;39744;53.314;5.710;2023-08-31T13:49:13;19.30;99.90
53844;DHT22;39744;53.314;5.710;2023-08-31T13:51:39;19.20;99.90
53844;DHT22;39744;53.314;5.710;2023-08-31T13:54:05;19.20;99.90
53844;DHT22;39744;53.314;5.710;2023-08-31T13:56:31;19.10;99.90
53844;DHT22;39744;53.314;5.710;2023-08-31T13:58:56;19.00;99.90
53844;DHT22;39744;53.314;5.710;2023-08-31T14:01:25;19.00;99.90
53844;DHT22;39744;53.314;5.710;2023-08-31T14:03:51;19.00;99.90
53844;DHT22;39744;53.314;5.710;2023-08-31T14:06:17;19.00;99.90
53844;DHT22;39744;53.314;5.710;2023-08-31T14:08:42;18.80;99.90
53844;DHT22;39744;53.314;5.710;2023-08-31T14:11:08;18.80;99.90
53844;DHT22;39744;53.314;5.710;2023-08-31T14:13:34;18.80;99.90
53844;DHT22;39744;53.314;5.710;2023-08-31T14:16:00;18.80;99.90
53844;DHT22;39744;53.314;5.710;2023-08-31T14:18:26;18.80;99.90
53844;DHT22;39744;53.314;5.710;2023-08-31T14:20:54;18.80;99.90
53844;DHT22;39744;53.314;5.710;2023-08-31T14:23:19;18.80;99.90
53844;DHT22;39744;53.314;5.710;2023-08-31T14:25:45;18.60;99.90
53844;DHT22;39744;53.314;5.710;2023-08-31T14:28:11;18.70;99.90
53844;DHT22;39744;53.314;5.710;2023-08-31T14:30:37;18.70;99.90
53844;DHT22;39744;53.314;5.710;2023-08-31T14:33:04;18.60;99.90
53844;DHT22;39744;53.314;5.710;2023-08-31T14:35:30;18.60;99.90
53844;DHT22;39744;53.314;5.710;2023-08-31T14:37:57;18.70;99.90
53844;DHT22;39744;53.314;5.710;2023-08-31T14:40:23;18.70;99.90
53844;DHT22;39744;53.314;5.710;2023-08-31T14:42:49;18.60;99.90
53844;DHT22;39744;53.314;5.710;2023-08-31T14:45:15;18.50;99.90
53844;DHT22;39744;53.314;5.710;2023-08-31T14:47:41;18.40;99.90
53844;DHT22;39744;53.314;5.710;2023-08-31T14:50:07;18.40;99.90
53844;DHT22;39744;53.314;5.710;2023-08-31T14:52:33;18.40;99.90
53844;DHT22;39744;53.314;5.710;2023-08-31T14:54:59;18.50;99.90
53844;DHT22;39744;53.314;5.710;2023-08-31T14:57:25;18.20;99.90
53844;DHT22;39744;53.314;5.710;2023-08-31T14:59:51;18.40;99.90
53844;DHT22;39744;53.314;5.710;2023-08-31T15:02:20;18.40;99.90
53844;DHT22;39744;53.314;5.710;2023-08-31T15:04:48;18.50;99.90
53844;DHT22;39744;53.314;5.710;2023-08-31T15:07:15;18.10;99.90
53844;DHT22;39744;53.314;5.710;2023-08-31T15:09:42;18.60;99.90
53844;DHT22;39744;53.314;5.710;2023-08-31T15:12:08;17.90;99.90
53844;DHT22;39744;53.314;5.710;2023-08-31T15:14:33;17.60;99.90
53844;DHT22;39744;53.314;5.710;2023-08-31T15:16:59;17.30;99.90
53844;DHT22;39744;53.314;5.710;2023-08-31T15:19:25;17.30;99.90
53844;DHT22;39744;53.314;5.710;2023-08-31T15:21:50;17.10;99.90
53844;DHT22;39744;53.314;5.710;2023-08-31T15:24:16;17.00;99.90
53844;DHT22;39744;53.314;5.710;2023-08-31T15:26:42;16.80;99.90
53844;DHT22;39744;53.314;5.710;2023-08-31T15:29:09;16.60;99.90
53844;DHT22;39744;53.314;5.710;2023-08-31T15:31:34;16.50;99.90
53844;DHT22;39744;53.314;5.710;2023-08-31T15:34:01;16.40;99.90
53844;DHT22;39744;53.314;5.710;2023-08-31T15:36:27;16.60;99.90
53844;DHT22;39744;53.314;5.710;2023-08-31T15:38:52;16.30;99.90
53844;DHT22;39744;53.314;5.710;2023-08-31T15:41:19;16.40;99.90
53844;DHT22;39744;53.314;5.710;2023-08-31T15:43:44;17.10;99.90
53844;DHT22;39744;53.314;5.710;2023-08-31T15:46:11;16.00;99.90
53844;DHT22;39744;53.314;5.710;2023-08-31T15:48:37;16.90;99.90
53844;DHT22;39744;53.314;5.710;2023-08-31T15:51:03;16.90;99.90
53844;DHT22;39744;53.314;5.710;2023-08-31T15:53:28;17.20;99.90
53844;DHT22;39744;53.314;5.710;2023-08-31T15:55:55;17.30;99.90
53844;DHT22;39744;53.314;5.710;2023-08-31T15:58:21;16.80;99.90
53844;DHT22;39744;53.314;5.710;2023-08-31T16:00:47;17.30;99.90
53844;DHT22;39744;53.314;5.710;2023-08-31T16:03:13;17.00;99.90
53844;DHT22;39744;53.314;5.710;2023-08-31T16:05:40;17.20;99.90
53844;DHT22;39744;53.314;5.710;2023-08-31T16:08:06;17.20;99.90
53844;DHT22;39744;53.314;5.710;2023-08-31T16:10:35;17.50;99.90
53844;DHT22;39744;53.314;5.710;2023-08-31T16:13:00;17.40;99.90
53844;DHT22;39744;53.314;5.710;2023-08-31T16:15:27;17.70;99.90
53844;DHT22;39744;53.314;5.710;2023-08-31T16:17:54;17.30;99.90
53844;DHT22;39744;53.314;5.710;2023-08-31T16:20:20;18.20;99.90
53844;DHT22;39744;53.314;5.710;2023-08-31T16:22:46;17.70;99.90
53844;DHT22;39744;53.314;5.710;2023-08-31T16:25:12;18.00;99.90
53844;DHT22;39744;53.314;5.710;2023-08-31T16:27:38;17.80;99.90
53844;DHT22;39744;53.314;5.710;2023-08-31T16:30:04;17.70;99.90
53844;DHT22;39744;53.314;5.710;2023-08-31T16:32:30;17.50;99.90
53844;DHT22;39744;53.314;5.710;2023-08-31T16:34:56;17.60;99.90
53844;DHT22;39744;53.314;5.710;2023-08-31T16:37:22;17.30;99.90
53844;DHT22;39744;53.314;5.710;2023-08-31T16:39:50;16.90;99.90
53844;DHT22;39744;53.314;5.710;2023-08-31T16:42:19;17.40;99.90
53844;DHT22;39744;53.314;5.710;2023-08-31T16:44:45;17.70;99.90
53844;DHT22;39744;53.314;5.710;2023-08-31T16:47:11;18.10;99.90
53844;DHT22;39744;53.314;5.710;2023-08-31T16:49:37;18.10;99.90
53844;DHT22;39744;53.314;5.710;2023-08-31T16:52:03;17.40;99.90
53844;DHT22;39744;53.314;5.710;2023-08-31T16:54:30;17.60;99.90
53844;DHT22;39744;53.314;5.710;2023-08-31T16:56:56;17.80;99.90
53844;DHT22;39744;53.314;5.710;2023-08-31T16:59:22;18.10;99.90
53844;DHT22;39744;53.314;5.710;2023-08-31T17:01:48;17.40;99.90
53844;DHT22;39744;53.314;5.710;2023-08-31T17:04:15;17.70;99.90
53844;DHT22;39744;53.314;5.710;2023-08-31T17:06:40;17.20;99.90
53844;DHT22;39744;53.314;5.710;2023-08-31T17:09:06;17.80;99.90
53844;DHT22;39744;53.314;5.710;2023-08-31T17:11:34;17.20;99.90
53844;DHT22;39744;53.314;5.710;2023-08-31T17:14:03;16.90;99.90
53844;DHT22;39744;53.314;5.710;2023-08-31T17:16:32;16.60;99.90
53844;DHT22;39744;53.314;5.710;2023-08-31T17:18:58;17.00;99.90
53844;DHT22;39744;53.314;5.710;2023-08-31T17:21:24;16.80;99.90
53844;DHT22;39744;53.314;5.710;2023-08-31T17:23:50;17.30;99.90
53844;DHT22;39744;53.314;5.710;2023-08-31T17:26:23;17.10;99.90
53844;DHT22;39744;53.314;5.710;2023-08-31T17:28:49;16.60;99.90
53844;DHT22;39744;53.314;5.710;2023-08-31T17:31:15;16.80;99.90
53844;DHT22;39744;53.314;5.710;2023-08-31T17:33:41;17.10;99.90
53844;DHT22;39744;53.314;5.710;2023-08-31T17:36:07;17.00;99.90
53844;DHT22;39744;53.314;5.710;2023-08-31T17:38:33;16.40;99.90
53844;DHT22;39744;53.314;5.710;2023-08-31T17:41:02;16.70;99.90
53844;DHT22;39744;53.314;5.710;2023-08-31T17:43:29;16.70;99.90